sensor_id;sensor_type;location;lat;lon;timestamp;temperature;humidity
9486;DHT22;4781;48.776;9.200;2022-11-20T00:01:34;5.50;99.90
9486;DHT22;4781;48.776;9.200;2022-11-20T00:04:03;5.40;99.90
9486;DHT22;4781;48.776;9.200;2022-11-20T00:06:31;5.50;99.90
9486;DHT22;4781;48.776;9.200;2022-11-20T00:09:00;5.50;99.90
9486;DHT22;4781;48.776;9.200;2022-11-20T00:11:30;5.40;99.90
9486;DHT22;4781;48.776;9.200;2022-11-20T00:14:00;5.50;99.90
9486;DHT22;4781;48.776;9.200;2022-11-20T00:16:31;5.50;99.90
9486;DHT22;4781;48.776;9.200;2022-11-20T00:19:00;5.50;99.90
9486;DHT22;4781;48.776;9.200;2022-11-20T00:21:29;5.50;99.90
9486;DHT22;4781;48.776;9.200;2022-11-20T00:23:58;5.50;99.90
9486;DHT22;4781;48.776;9.200;2022-11-20T00:26:28;5.50;99.90
9486;DHT22;4781;48.776;9.200;2022-11-20T00:28:59;5.50;99.90
9486;DHT22;4781;48.776;9.200;2022-11-20T00:31:29;5.50;99.90
9486;DHT22;4781;48.776;9.200;2022-11-20T00:33:59;5.50;99.90
9486;DHT22;4781;48.776;9.200;2022-11-20T00:36:29;5.50;99.90
9486;DHT22;4781;48.776;9.200;2022-11-20T00:38:59;5.50;99.90
9486;DHT22;4781;48.776;9.200;2022-11-20T00:41:28;5.50;99.90
9486;DHT22;4781;48.776;9.200;2022-11-20T00:43:57;5.60;99.90
9486;DHT22;4781;48.776;9.200;2022-11-20T00:46:27;5.50;99.90
9486;DHT22;4781;48.776;9.200;2022-11-20T00:48:56;5.50;99.90
9486;DHT22;4781;48.776;9.200;2022-11-20T00:51:26;5.60;99.90
9486;DHT22;4781;48.776;9.200;2022-11-20T00:53:56;5.60;99.90
9486;DHT22;4781;48.776;9.200;2022-11-20T00:56:26;5.60;99.90
9486;DHT22;4781;48.776;9.200;2022-11-20T00:58:55;5.70;99.90
9486;DHT22;4781;48.776;9.200;2022-11-20T01:01:25;5.70;99.90
9486;DHT22;4781;48.776;9.200;2022-11-20T01:03:58;5.70;99.90
9486;DHT22;4781;48.776;9.200;2022-11-20T01:06:29;5.70;99.90
9486;DHT22;4781;48.776;9.200;2022-11-20T01:09:03;5.70;99.90
9486;DHT22;4781;48.776;9.200;2022-11-20T01:11:36;5.70;99.90
9486;DHT22;4781;48.776;9.200;2022-11-20T01:14:09;5.70;99.90
9486;DHT22;4781;48.776;9.200;2022-11-20T01:16:44;5.70;99.90
9486;DHT22;4781;48.776;9.200;2022-11-20T01:19:17;5.80;99.90
9486;DHT22;4781;48.776;9.200;2022-11-20T01:21:49;5.80;99.90
9486;DHT22;4781;48.776;9.200;2022-11-20T01:24:20;5.80;99.90
9486;DHT22;4781;48.776;9.200;2022-11-20T01:26:50;5.80;99.90
9486;DHT22;4781;48.776;9.200;2022-11-20T01:29:23;5.80;99.90
9486;DHT22;4781;48.776;9.200;2022-11-20T01:31:52;5.80;99.90
9486;DHT22;4781;48.776;9.200;2022-11-20T01:34:22;5.80;99.90
9486;DHT22;4781;48.776;9.200;2022-11-20T01:36:52;5.80;99.90
9486;DHT22;4781;48.776;9.200;2022-11-20T01:39:23;5.80;99.90
9486;DHT22;4781;48.776;9.200;2022-11-20T01:41:53;5.80;99.90
9486;DHT22;4781;48.776;9.200;2022-11-20T01:44:55;5.80;99.90
9486;DHT22;4781;48.776;9.200;2022-11-20T01:52:54;5.80;99.90
9486;DHT22;4781;48.776;9.200;2022-11-20T01:55:28;5.70;99.90
9486;DHT22;4781;48.776;9.200;2022-11-20T01:58:01;5.70;99.90
9486;DHT22;4781;48.776;9.200;2022-11-20T02:00:31;5.70;99.90
9486;DHT22;4781;48.776;9.200;2022-11-20T02:03:03;5.60;99.90
9486;DHT22;4781;48.776;9.200;2022-11-20T02:05:43;5.60;99.90
9486;DHT22;4781;48.776;9.200;2022-11-20T02:08:28;5.60;99.90
9486;DHT22;4781;48.776;9.200;2022-11-20T02:10:57;5.60;99.90
9486;DHT22;4781;48.776;9.200;2022-11-20T02:13:26;5.60;99.90
9486;DHT22;4781;48.776;9.200;2022-11-20T02:16:27;5.60;99.90
9486;DHT22;4781;48.776;9.200;2022-11-20T02:19:02;5.60;99.90
9486;DHT22;4781;48.776;9.200;2022-11-20T02:21:59;5.60;99.90
9486;DHT22;4781;48.776;9.200;2022-11-20T02:24:25;5.50;99.90
9486;DHT22;4781;48.776;9.200;2022-11-20T02:27:02;5.60;99.90
9486;DHT22;4781;48.776;9.200;2022-11-20T02:29:45;5.60;99.90
9486;DHT22;4781;48.776;9.200;2022-11-20T02:32:26;5.60;99.90
9486;DHT22;4781;48.776;9.200;2022-11-20T02:34:56;5.60;99.90
9486;DHT22;4781;48.776;9.200;2022-11-20T02:37:27;5.60;99.90
9486;DHT22;4781;48.776;9.200;2022-11-20T02:39:57;5.60;99.90
9486;DHT22;4781;48.776;9.200;2022-11-20T02:42:26;5.50;99.90
9486;DHT22;4781;48.776;9.200;2022-11-20T02:44:54;5.50;99.90
9486;DHT22;4781;48.776;9.200;2022-11-20T02:47:22;5.50;99.90
9486;DHT22;4781;48.776;9.200;2022-11-20T02:49:51;5.50;99.90
9486;DHT22;4781;48.776;9.200;2022-11-20T02:52:19;5.50;99.90
9486;DHT22;4781;48.776;9.200;2022-11-20T02:54:47;5.60;99.90
9486;DHT22;4781;48.776;9.200;2022-11-20T02:57:16;5.60;99.90
9486;DHT22;4781;48.776;9.200;2022-11-20T02:59:44;5.60;99.90
9486;DHT22;4781;48.776;9.200;2022-11-20T03:02:13;5.60;99.90
9486;DHT22;4781;48.776;9.200;2022-11-20T03:04:41;5.60;99.90
9486;DHT22;4781;48.776;9.200;2022-11-20T03:07:09;5.60;99.90
9486;DHT22;4781;48.776;9.200;2022-11-20T03:09:38;5.70;99.90
9486;DHT22;4781;48.776;9.200;2022-11-20T03:12:06;5.60;99.90
9486;DHT22;4781;48.776;9.200;2022-11-20T03:14:35;5.70;99.90
9486;DHT22;4781;48.776;9.200;2022-11-20T03:17:03;5.70;99.90
9486;DHT22;4781;48.776;9.200;2022-11-20T03:19:32;5.70;99.90
9486;DHT22;4781;48.776;9.200;2022-11-20T03:22:01;5.70;99.90
9486;DHT22;4781;48.776;9.200;2022-11-20T03:24:29;5.70;99.90
9486;DHT22;4781;48.776;9.200;2022-11-20T03:26:57;5.70;99.90
9486;DHT22;4781;48.776;9.200;2022-11-20T03:29:26;5.70;99.90
9486;DHT22;4781;48.776;9.200;2022-11-20T03:31:54;5.70;99.90
9486;DHT22;4781;48.776;9.200;2022-11-20T03:34:23;5.70;99.90
9486;DHT22;4781;48.776;9.200;2022-11-20T03:36:51;5.70;99.90
9486;DHT22;4781;48.776;9.200;2022-11-20T03:39:19;5.70;99.90
9486;DHT22;4781;48.776;9.200;2022-11-20T03:41:48;5.70;99.90
9486;DHT22;4781;48.776;9.200;2022-11-20T03:44:16;5.70;99.90
9486;DHT22;4781;48.776;9.200;2022-11-20T03:46:44;5.70;99.90
9486;DHT22;4781;48.776;9.200;2022-11-20T03:49:13;5.60;99.90
9486;DHT22;4781;48.776;9.200;2022-11-20T03:51:41;5.60;99.90
9486;DHT22;4781;48.776;9.200;2022-11-20T03:54:10;5.60;99.90
9486;DHT22;4781;48.776;9.200;2022-11-20T03:56:38;5.60;99.90
9486;DHT22;4781;48.776;9.200;2022-11-20T03:59:09;5.50;99.90
9486;DHT22;4781;48.776;9.200;2022-11-20T04:01:37;5.50;99.90
9486;DHT22;4781;48.776;9.200;2022-11-20T04:04:07;5.50;99.90
9486;DHT22;4781;48.776;9.200;2022-11-20T04:06:37;5.40;99.90
9486;DHT22;4781;48.776;9.200;2022-11-20T04:09:06;5.40;99.90
9486;DHT22;4781;48.776;9.200;2022-11-20T04:11:36;5.40;99.90
9486;DHT22;4781;48.776;9.200;2022-11-20T04:14:11;5.40;99.90
9486;DHT22;4781;48.776;9.200;2022-11-20T04:16:40;5.30;99.90
9486;DHT22;4781;48.776;9.200;2022-11-20T04:19:12;5.30;99.90
9486;DHT22;4781;48.776;9.200;2022-11-20T04:21:42;5.30;99.90
9486;DHT22;4781;48.776;9.200;2022-11-20T04:24:11;5.30;99.90
9486;DHT22;4781;48.776;9.200;2022-11-20T04:26:40;5.30;99.90
9486;DHT22;4781;48.776;9.200;2022-11-20T04:29:10;5.30;99.90
9486;DHT22;4781;48.776;9.200;2022-11-20T04:31:39;5.30;99.90
9486;DHT22;4781;48.776;9.200;2022-11-20T04:34:10;5.20;99.90
9486;DHT22;4781;48.776;9.200;2022-11-20T04:36:38;5.20;99.90
9486;DHT22;4781;48.776;9.200;2022-11-20T04:39:06;5.20;99.90
9486;DHT22;4781;48.776;9.200;2022-11-20T04:41:36;5.20;99.90
9486;DHT22;4781;48.776;9.200;2022-11-20T04:44:05;5.30;99.90
9486;DHT22;4781;48.776;9.200;2022-11-20T04:46:42;5.30;99.90
9486;DHT22;4781;48.776;9.200;2022-11-20T04:49:11;5.30;99.90
9486;DHT22;4781;48.776;9.200;2022-11-20T04:51:39;5.30;99.90
9486;DHT22;4781;48.776;9.200;2022-11-20T04:54:09;5.40;99.90
9486;DHT22;4781;48.776;9.200;2022-11-20T04:56:38;5.40;99.90
9486;DHT22;4781;48.776;9.200;2022-11-20T04:59:06;5.50;99.90
9486;DHT22;4781;48.776;9.200;2022-11-20T05:01:35;5.60;99.90
9486;DHT22;4781;48.776;9.200;2022-11-20T05:04:03;5.50;99.90
9486;DHT22;4781;48.776;9.200;2022-11-20T05:06:32;5.60;99.90
9486;DHT22;4781;48.776;9.200;2022-11-20T05:09:00;5.70;99.90
9486;DHT22;4781;48.776;9.200;2022-11-20T05:11:29;5.60;99.90
9486;DHT22;4781;48.776;9.200;2022-11-20T05:13:59;5.60;99.90
9486;DHT22;4781;48.776;9.200;2022-11-20T05:16:27;5.60;99.90
9486;DHT22;4781;48.776;9.200;2022-11-20T05:18:56;5.70;99.90
9486;DHT22;4781;48.776;9.200;2022-11-20T05:21:24;5.70;99.90
9486;DHT22;4781;48.776;9.200;2022-11-20T05:23:53;5.70;99.90
9486;DHT22;4781;48.776;9.200;2022-11-20T05:26:22;5.70;99.90
9486;DHT22;4781;48.776;9.200;2022-11-20T05:28:51;5.70;99.90
9486;DHT22;4781;48.776;9.200;2022-11-20T05:31:21;5.70;99.90
9486;DHT22;4781;48.776;9.200;2022-11-20T05:33:51;5.70;99.90
9486;DHT22;4781;48.776;9.200;2022-11-20T05:36:19;5.70;99.90
9486;DHT22;4781;48.776;9.200;2022-11-20T05:38:48;5.70;99.90
9486;DHT22;4781;48.776;9.200;2022-11-20T05:41:18;5.70;99.90
9486;DHT22;4781;48.776;9.200;2022-11-20T05:43:48;5.70;99.90
9486;DHT22;4781;48.776;9.200;2022-11-20T05:46:19;5.70;99.90
9486;DHT22;4781;48.776;9.200;2022-11-20T05:48:47;5.70;99.90
9486;DHT22;4781;48.776;9.200;2022-11-20T05:51:18;5.70;99.90
9486;DHT22;4781;48.776;9.200;2022-11-20T05:53:47;5.80;99.90
9486;DHT22;4781;48.776;9.200;2022-11-20T05:56:18;5.70;99.90
9486;DHT22;4781;48.776;9.200;2022-11-20T05:58:48;5.70;99.90
9486;DHT22;4781;48.776;9.200;2022-11-20T06:01:26;5.80;99.90
9486;DHT22;4781;48.776;9.200;2022-11-20T06:03:52;5.80;99.90
9486;DHT22;4781;48.776;9.200;2022-11-20T06:06:21;5.80;99.90
9486;DHT22;4781;48.776;9.200;2022-11-20T06:09:10;5.80;99.90
9486;DHT22;4781;48.776;9.200;2022-11-20T06:11:39;5.70;99.90
9486;DHT22;4781;48.776;9.200;2022-11-20T06:14:07;5.80;99.90
9486;DHT22;4781;48.776;9.200;2022-11-20T06:16:36;5.80;99.90
9486;DHT22;4781;48.776;9.200;2022-11-20T06:19:04;5.70;99.90
9486;DHT22;4781;48.776;9.200;2022-11-20T06:21:32;5.80;99.90
9486;DHT22;4781;48.776;9.200;2022-11-20T06:24:01;5.80;99.90
9486;DHT22;4781;48.776;9.200;2022-11-20T06:26:30;5.80;99.90
9486;DHT22;4781;48.776;9.200;2022-11-20T06:28:58;5.80;99.90
9486;DHT22;4781;48.776;9.200;2022-11-20T06:31:27;5.80;99.90
9486;DHT22;4781;48.776;9.200;2022-11-20T06:33:56;5.80;99.90
9486;DHT22;4781;48.776;9.200;2022-11-20T06:36:24;5.80;99.90
9486;DHT22;4781;48.776;9.200;2022-11-20T06:38:55;5.80;99.90
9486;DHT22;4781;48.776;9.200;2022-11-20T06:41:24;5.80;99.90
9486;DHT22;4781;48.776;9.200;2022-11-20T06:43:52;5.80;99.90
9486;DHT22;4781;48.776;9.200;2022-11-20T06:46:21;5.80;99.90
9486;DHT22;4781;48.776;9.200;2022-11-20T06:48:50;5.80;99.90
9486;DHT22;4781;48.776;9.200;2022-11-20T06:51:18;5.80;99.90
9486;DHT22;4781;48.776;9.200;2022-11-20T06:53:47;5.90;99.90
9486;DHT22;4781;48.776;9.200;2022-11-20T06:56:16;5.90;99.90
9486;DHT22;4781;48.776;9.200;2022-11-20T06:58:44;5.90;99.90
9486;DHT22;4781;48.776;9.200;2022-11-20T07:01:14;5.90;99.90
9486;DHT22;4781;48.776;9.200;2022-11-20T07:03:43;5.90;99.90
9486;DHT22;4781;48.776;9.200;2022-11-20T07:06:11;5.90;99.90
9486;DHT22;4781;48.776;9.200;2022-11-20T07:08:40;5.90;99.90
9486;DHT22;4781;48.776;9.200;2022-11-20T07:11:11;5.90;99.90
9486;DHT22;4781;48.776;9.200;2022-11-20T07:13:38;5.90;99.90
9486;DHT22;4781;48.776;9.200;2022-11-20T07:16:08;5.90;99.90
9486;DHT22;4781;48.776;9.200;2022-11-20T07:18:36;5.90;99.90
9486;DHT22;4781;48.776;9.200;2022-11-20T07:21:06;5.90;99.90
9486;DHT22;4781;48.776;9.200;2022-11-20T07:23:36;5.90;99.90
9486;DHT22;4781;48.776;9.200;2022-11-20T07:26:06;6.00;99.90
9486;DHT22;4781;48.776;9.200;2022-11-20T07:28:37;6.00;99.90
9486;DHT22;4781;48.776;9.200;2022-11-20T07:31:05;6.00;99.90
9486;DHT22;4781;48.776;9.200;2022-11-20T07:33:34;6.00;99.90
9486;DHT22;4781;48.776;9.200;2022-11-20T07:36:02;6.00;99.90
9486;DHT22;4781;48.776;9.200;2022-11-20T07:38:31;6.10;99.90
9486;DHT22;4781;48.776;9.200;2022-11-20T07:41:00;6.10;99.90
9486;DHT22;4781;48.776;9.200;2022-11-20T07:43:31;6.10;99.90
9486;DHT22;4781;48.776;9.200;2022-11-20T07:45:59;6.10;99.90
9486;DHT22;4781;48.776;9.200;2022-11-20T07:48:28;6.20;99.90
9486;DHT22;4781;48.776;9.200;2022-11-20T07:50:56;6.20;99.90
9486;DHT22;4781;48.776;9.200;2022-11-20T07:53:25;6.30;99.90
9486;DHT22;4781;48.776;9.200;2022-11-20T07:55:53;6.30;99.90
9486;DHT22;4781;48.776;9.200;2022-11-20T07:58:22;6.30;99.90
9486;DHT22;4781;48.776;9.200;2022-11-20T08:00:50;6.30;99.90
9486;DHT22;4781;48.776;9.200;2022-11-20T08:03:19;6.40;99.90
9486;DHT22;4781;48.776;9.200;2022-11-20T08:05:47;6.40;99.90
9486;DHT22;4781;48.776;9.200;2022-11-20T08:08:15;6.40;99.90
9486;DHT22;4781;48.776;9.200;2022-11-20T08:10:44;6.40;99.90
9486;DHT22;4781;48.776;9.200;2022-11-20T08:13:12;6.40;99.90
9486;DHT22;4781;48.776;9.200;2022-11-20T08:15:58;6.50;99.90
9486;DHT22;4781;48.776;9.200;2022-11-20T08:18:26;6.50;99.90
9486;DHT22;4781;48.776;9.200;2022-11-20T08:20:55;6.50;99.90
9486;DHT22;4781;48.776;9.200;2022-11-20T08:23:23;6.50;99.90
9486;DHT22;4781;48.776;9.200;2022-11-20T08:25:51;6.60;99.90
9486;DHT22;4781;48.776;9.200;2022-11-20T08:28:20;6.60;99.90
9486;DHT22;4781;48.776;9.200;2022-11-20T08:30:48;6.60;99.90
9486;DHT22;4781;48.776;9.200;2022-11-20T08:33:17;6.60;99.90
9486;DHT22;4781;48.776;9.200;2022-11-20T08:35:46;6.60;99.90
9486;DHT22;4781;48.776;9.200;2022-11-20T08:38:14;6.70;99.90
9486;DHT22;4781;48.776;9.200;2022-11-20T08:40:43;6.70;99.90
9486;DHT22;4781;48.776;9.200;2022-11-20T08:43:13;6.70;99.90
9486;DHT22;4781;48.776;9.200;2022-11-20T08:45:41;6.70;99.90
9486;DHT22;4781;48.776;9.200;2022-11-20T08:48:10;6.70;99.90
9486;DHT22;4781;48.776;9.200;2022-11-20T08:50:38;6.80;99.90
9486;DHT22;4781;48.776;9.200;2022-11-20T08:53:06;6.80;99.90
9486;DHT22;4781;48.776;9.200;2022-11-20T08:55:35;6.80;99.90
9486;DHT22;4781;48.776;9.200;2022-11-20T08:58:04;6.90;99.90
9486;DHT22;4781;48.776;9.200;2022-11-20T09:00:34;6.90;99.90
9486;DHT22;4781;48.776;9.200;2022-11-20T09:03:03;7.10;99.90
9486;DHT22;4781;48.776;9.200;2022-11-20T09:05:31;7.20;99.90
9486;DHT22;4781;48.776;9.200;2022-11-20T09:08:00;7.30;99.90
9486;DHT22;4781;48.776;9.200;2022-11-20T09:10:28;7.30;99.90
9486;DHT22;4781;48.776;9.200;2022-11-20T09:12:57;7.30;99.90
9486;DHT22;4781;48.776;9.200;2022-11-20T09:15:26;7.30;99.90
9486;DHT22;4781;48.776;9.200;2022-11-20T09:17:56;7.30;99.90
9486;DHT22;4781;48.776;9.200;2022-11-20T09:20:27;7.30;99.90
9486;DHT22;4781;48.776;9.200;2022-11-20T09:22:57;7.30;99.90
9486;DHT22;4781;48.776;9.200;2022-11-20T09:25:25;7.30;99.90
9486;DHT22;4781;48.776;9.200;2022-11-20T09:28:00;7.30;99.90
9486;DHT22;4781;48.776;9.200;2022-11-20T09:30:28;7.30;99.90
9486;DHT22;4781;48.776;9.200;2022-11-20T09:32:57;7.40;99.90
9486;DHT22;4781;48.776;9.200;2022-11-20T09:35:25;7.40;99.90
9486;DHT22;4781;48.776;9.200;2022-11-20T09:37:54;7.30;99.90
9486;DHT22;4781;48.776;9.200;2022-11-20T09:40:26;7.30;99.90
9486;DHT22;4781;48.776;9.200;2022-11-20T09:46:19;7.30;99.90
9486;DHT22;4781;48.776;9.200;2022-11-20T09:49:17;7.40;99.90
9486;DHT22;4781;48.776;9.200;2022-11-20T09:54:41;7.40;99.90
9486;DHT22;4781;48.776;9.200;2022-11-20T09:57:16;7.40;99.90
9486;DHT22;4781;48.776;9.200;2022-11-20T09:59:57;7.40;99.90
9486;DHT22;4781;48.776;9.200;2022-11-20T10:02:37;7.40;99.90
9486;DHT22;4781;48.776;9.200;2022-11-20T10:05:11;7.40;99.90
9486;DHT22;4781;48.776;9.200;2022-11-20T10:10:46;7.40;99.90
9486;DHT22;4781;48.776;9.200;2022-11-20T10:16:58;7.30;99.90
9486;DHT22;4781;48.776;9.200;2022-11-20T10:19:55;7.30;99.90
9486;DHT22;4781;48.776;9.200;2022-11-20T10:25:18;7.20;99.90
9486;DHT22;4781;48.776;9.200;2022-11-20T10:30:29;7.20;99.90
9486;DHT22;4781;48.776;9.200;2022-11-20T10:33:03;7.10;99.90
9486;DHT22;4781;48.776;9.200;2022-11-20T10:35:55;7.10;99.90
9486;DHT22;4781;48.776;9.200;2022-11-20T10:38:34;6.90;99.90
9486;DHT22;4781;48.776;9.200;2022-11-20T10:41:02;6.90;99.90
9486;DHT22;4781;48.776;9.200;2022-11-20T10:43:54;6.90;99.90
9486;DHT22;4781;48.776;9.200;2022-11-20T10:46:33;7.00;99.90
9486;DHT22;4781;48.776;9.200;2022-11-20T10:49:18;7.00;99.90
9486;DHT22;4781;48.776;9.200;2022-11-20T10:51:59;6.90;99.90
9486;DHT22;4781;48.776;9.200;2022-11-20T10:54:49;6.90;99.90
9486;DHT22;4781;48.776;9.200;2022-11-20T11:00:06;6.80;99.90
9486;DHT22;4781;48.776;9.200;2022-11-20T11:02:47;6.70;99.90
9486;DHT22;4781;48.776;9.200;2022-11-20T11:05:42;6.70;99.90
9486;DHT22;4781;48.776;9.200;2022-11-20T11:08:19;6.80;99.90
9486;DHT22;4781;48.776;9.200;2022-11-20T11:10:59;6.80;99.90
9486;DHT22;4781;48.776;9.200;2022-11-20T11:13:30;6.70;99.90
9486;DHT22;4781;48.776;9.200;2022-11-20T11:15:58;6.80;99.90
9486;DHT22;4781;48.776;9.200;2022-11-20T11:18:32;6.80;99.90
9486;DHT22;4781;48.776;9.200;2022-11-20T11:21:03;6.80;99.90
9486;DHT22;4781;48.776;9.200;2022-11-20T11:26:17;6.90;99.90
9486;DHT22;4781;48.776;9.200;2022-11-20T11:28:57;6.80;99.90
9486;DHT22;4781;48.776;9.200;2022-11-20T11:31:34;6.90;99.90
9486;DHT22;4781;48.776;9.200;2022-11-20T11:34:16;7.00;99.90
9486;DHT22;4781;48.776;9.200;2022-11-20T11:36:55;7.10;99.90
9486;DHT22;4781;48.776;9.200;2022-11-20T11:39:24;7.40;99.90
9486;DHT22;4781;48.776;9.200;2022-11-20T11:41:54;7.60;99.90
9486;DHT22;4781;48.776;9.200;2022-11-20T11:44:30;7.70;99.90
9486;DHT22;4781;48.776;9.200;2022-11-20T11:47:30;7.90;99.90
9486;DHT22;4781;48.776;9.200;2022-11-20T11:52:58;8.00;99.90
9486;DHT22;4781;48.776;9.200;2022-11-20T11:55:56;7.90;99.90
9486;DHT22;4781;48.776;9.200;2022-11-20T11:58:44;8.00;99.90
9486;DHT22;4781;48.776;9.200;2022-11-20T12:01:28;8.10;99.90
9486;DHT22;4781;48.776;9.200;2022-11-20T12:07:00;8.10;99.90
9486;DHT22;4781;48.776;9.200;2022-11-20T12:09:35;8.10;99.90
9486;DHT22;4781;48.776;9.200;2022-11-20T12:12:15;8.10;99.90
9486;DHT22;4781;48.776;9.200;2022-11-20T12:14:46;8.10;99.90
9486;DHT22;4781;48.776;9.200;2022-11-20T12:17:16;8.00;99.90
9486;DHT22;4781;48.776;9.200;2022-11-20T12:19:45;7.90;99.90
9486;DHT22;4781;48.776;9.200;2022-11-20T12:22:24;8.00;99.90
9486;DHT22;4781;48.776;9.200;2022-11-20T12:31:23;8.20;99.90
9486;DHT22;4781;48.776;9.200;2022-11-20T12:34:07;8.40;99.90
9486;DHT22;4781;48.776;9.200;2022-11-20T12:39:34;8.40;99.90
9486;DHT22;4781;48.776;9.200;2022-11-20T12:42:23;8.40;99.90
9486;DHT22;4781;48.776;9.200;2022-11-20T12:51:33;8.50;99.90
9486;DHT22;4781;48.776;9.200;2022-11-20T12:54:25;8.50;99.90
9486;DHT22;4781;48.776;9.200;2022-11-20T13:00:07;8.60;99.90
9486;DHT22;4781;48.776;9.200;2022-11-20T13:02:56;8.60;99.90
9486;DHT22;4781;48.776;9.200;2022-11-20T13:08:27;8.60;99.90
9486;DHT22;4781;48.776;9.200;2022-11-20T13:11:10;8.60;99.90
9486;DHT22;4781;48.776;9.200;2022-11-20T13:17:00;8.70;99.90
9486;DHT22;4781;48.776;9.200;2022-11-20T13:19:25;8.70;99.90
9486;DHT22;4781;48.776;9.200;2022-11-20T13:21:55;8.70;99.90
9486;DHT22;4781;48.776;9.200;2022-11-20T13:24:28;8.70;99.90
9486;DHT22;4781;48.776;9.200;2022-11-20T13:30:16;8.50;99.90
9486;DHT22;4781;48.776;9.200;2022-11-20T13:33:22;8.50;99.90
9486;DHT22;4781;48.776;9.200;2022-11-20T13:36:23;8.50;99.90
9486;DHT22;4781;48.776;9.200;2022-11-20T13:38:54;8.50;99.90
9486;DHT22;4781;48.776;9.200;2022-11-20T13:41:31;8.60;99.90
9486;DHT22;4781;48.776;9.200;2022-11-20T13:44:25;8.60;99.90
9486;DHT22;4781;48.776;9.200;2022-11-20T13:46:52;8.50;99.90
9486;DHT22;4781;48.776;9.200;2022-11-20T13:49:38;8.40;99.90
9486;DHT22;4781;48.776;9.200;2022-11-20T14:01:13;8.20;99.90
9486;DHT22;4781;48.776;9.200;2022-11-20T14:03:53;8.10;99.90
9486;DHT22;4781;48.776;9.200;2022-11-20T14:06:50;8.10;99.90
9486;DHT22;4781;48.776;9.200;2022-11-20T14:09:24;8.00;99.90
9486;DHT22;4781;48.776;9.200;2022-11-20T14:11:56;7.90;99.90
9486;DHT22;4781;48.776;9.200;2022-11-20T14:14:27;7.90;99.90
9486;DHT22;4781;48.776;9.200;2022-11-20T14:17:15;7.70;99.90
9486;DHT22;4781;48.776;9.200;2022-11-20T14:20:11;7.60;99.90
9486;DHT22;4781;48.776;9.200;2022-11-20T14:22:36;7.60;99.90
9486;DHT22;4781;48.776;9.200;2022-11-20T14:27:56;7.70;99.90
9486;DHT22;4781;48.776;9.200;2022-11-20T14:30:38;7.60;99.90
9486;DHT22;4781;48.776;9.200;2022-11-20T14:33:12;7.60;99.90
9486;DHT22;4781;48.776;9.200;2022-11-20T14:35:55;7.60;99.90
9486;DHT22;4781;48.776;9.200;2022-11-20T14:38:29;7.50;99.90
9486;DHT22;4781;48.776;9.200;2022-11-20T14:41:20;7.60;99.90
9486;DHT22;4781;48.776;9.200;2022-11-20T14:44:02;7.60;99.90
9486;DHT22;4781;48.776;9.200;2022-11-20T14:46:32;7.60;99.90
9486;DHT22;4781;48.776;9.200;2022-11-20T14:49:02;7.60;99.90
9486;DHT22;4781;48.776;9.200;2022-11-20T14:51:36;7.50;99.90
9486;DHT22;4781;48.776;9.200;2022-11-20T14:54:14;7.50;99.90
9486;DHT22;4781;48.776;9.200;2022-11-20T14:56:55;7.50;99.90
9486;DHT22;4781;48.776;9.200;2022-11-20T14:59:26;7.50;99.90
9486;DHT22;4781;48.776;9.200;2022-11-20T15:02:10;7.40;99.90
9486;DHT22;4781;48.776;9.200;2022-11-20T15:04:48;7.40;99.90
9486;DHT22;4781;48.776;9.200;2022-11-20T15:07:34;7.40;99.90
9486;DHT22;4781;48.776;9.200;2022-11-20T15:10:10;7.40;99.90
9486;DHT22;4781;48.776;9.200;2022-11-20T15:13:03;7.40;99.90
9486;DHT22;4781;48.776;9.200;2022-11-20T15:15:48;7.30;99.90
9486;DHT22;4781;48.776;9.200;2022-11-20T15:18:21;7.30;99.90
9486;DHT22;4781;48.776;9.200;2022-11-20T15:21:09;7.30;99.90
9486;DHT22;4781;48.776;9.200;2022-11-20T15:23:47;7.30;99.90
9486;DHT22;4781;48.776;9.200;2022-11-20T15:26:24;7.20;99.90
9486;DHT22;4781;48.776;9.200;2022-11-20T15:28:54;7.20;99.90
9486;DHT22;4781;48.776;9.200;2022-11-20T15:31:24;7.10;99.90
9486;DHT22;4781;48.776;9.200;2022-11-20T15:33:53;7.10;99.90
9486;DHT22;4781;48.776;9.200;2022-11-20T15:36:21;7.00;99.90
9486;DHT22;4781;48.776;9.200;2022-11-20T15:38:49;7.00;99.90
9486;DHT22;4781;48.776;9.200;2022-11-20T15:41:18;7.00;99.90
9486;DHT22;4781;48.776;9.200;2022-11-20T15:43:46;7.00;99.90
9486;DHT22;4781;48.776;9.200;2022-11-20T15:46:17;7.00;99.90
9486;DHT22;4781;48.776;9.200;2022-11-20T15:49:13;6.90;99.90
9486;DHT22;4781;48.776;9.200;2022-11-20T15:51:49;6.90;99.90
9486;DHT22;4781;48.776;9.200;2022-11-20T15:54:21;6.80;99.90
9486;DHT22;4781;48.776;9.200;2022-11-20T15:56:51;6.80;99.90
9486;DHT22;4781;48.776;9.200;2022-11-20T15:59:26;6.80;99.90
9486;DHT22;4781;48.776;9.200;2022-11-20T16:01:56;6.80;99.90
9486;DHT22;4781;48.776;9.200;2022-11-20T16:04:25;6.80;99.90
9486;DHT22;4781;48.776;9.200;2022-11-20T16:06:53;6.70;99.90
9486;DHT22;4781;48.776;9.200;2022-11-20T16:09:21;6.70;99.90
9486;DHT22;4781;48.776;9.200;2022-11-20T16:11:50;6.70;99.90
9486;DHT22;4781;48.776;9.200;2022-11-20T16:14:18;6.70;99.90
9486;DHT22;4781;48.776;9.200;2022-11-20T16:17:05;6.70;99.90
9486;DHT22;4781;48.776;9.200;2022-11-20T16:19:33;6.70;99.90
9486;DHT22;4781;48.776;9.200;2022-11-20T16:22:01;6.70;99.90
9486;DHT22;4781;48.776;9.200;2022-11-20T16:24:30;6.70;99.90
9486;DHT22;4781;48.776;9.200;2022-11-20T16:26:59;6.60;99.90
9486;DHT22;4781;48.776;9.200;2022-11-20T16:29:27;6.60;99.90
9486;DHT22;4781;48.776;9.200;2022-11-20T16:31:56;6.60;99.90
9486;DHT22;4781;48.776;9.200;2022-11-20T16:34:25;6.60;99.90
9486;DHT22;4781;48.776;9.200;2022-11-20T16:39:59;6.60;99.90
9486;DHT22;4781;48.776;9.200;2022-11-20T16:42:27;6.60;99.90
9486;DHT22;4781;48.776;9.200;2022-11-20T16:44:56;6.60;99.90
9486;DHT22;4781;48.776;9.200;2022-11-20T16:47:25;6.60;99.90
9486;DHT22;4781;48.776;9.200;2022-11-20T16:49:53;6.60;99.90
9486;DHT22;4781;48.776;9.200;2022-11-20T16:52:21;6.60;99.90
9486;DHT22;4781;48.776;9.200;2022-11-20T16:54:50;6.60;99.90
9486;DHT22;4781;48.776;9.200;2022-11-20T16:57:18;6.60;99.90
9486;DHT22;4781;48.776;9.200;2022-11-20T16:59:47;6.60;99.90
9486;DHT22;4781;48.776;9.200;2022-11-20T17:02:17;6.70;99.90
9486;DHT22;4781;48.776;9.200;2022-11-20T17:04:45;6.70;99.90
9486;DHT22;4781;48.776;9.200;2022-11-20T17:07:14;6.70;99.90
9486;DHT22;4781;48.776;9.200;2022-11-20T17:09:42;6.70;99.90
9486;DHT22;4781;48.776;9.200;2022-11-20T17:12:11;6.70;99.90
9486;DHT22;4781;48.776;9.200;2022-11-20T17:14:39;6.70;99.90
9486;DHT22;4781;48.776;9.200;2022-11-20T17:17:07;6.70;99.90
9486;DHT22;4781;48.776;9.200;2022-11-20T17:19:36;6.70;99.90
9486;DHT22;4781;48.776;9.200;2022-11-20T17:22:04;6.70;99.90
9486;DHT22;4781;48.776;9.200;2022-11-20T17:24:32;6.70;99.90
9486;DHT22;4781;48.776;9.200;2022-11-20T17:27:01;6.70;99.90
9486;DHT22;4781;48.776;9.200;2022-11-20T17:29:29;6.70;99.90
9486;DHT22;4781;48.776;9.200;2022-11-20T17:31:58;6.70;99.90
9486;DHT22;4781;48.776;9.200;2022-11-20T17:34:26;6.70;99.90
9486;DHT22;4781;48.776;9.200;2022-11-20T17:36:54;6.70;99.90
9486;DHT22;4781;48.776;9.200;2022-11-20T17:39:23;6.70;99.90
9486;DHT22;4781;48.776;9.200;2022-11-20T17:41:51;6.70;99.90
9486;DHT22;4781;48.776;9.200;2022-11-20T17:44:37;6.70;99.90
9486;DHT22;4781;48.776;9.200;2022-11-20T17:47:08;6.70;99.90
9486;DHT22;4781;48.776;9.200;2022-11-20T17:49:36;6.70;99.90
9486;DHT22;4781;48.776;9.200;2022-11-20T17:52:05;6.70;99.90
9486;DHT22;4781;48.776;9.200;2022-11-20T17:54:33;6.70;99.90
9486;DHT22;4781;48.776;9.200;2022-11-20T17:57:01;6.70;99.90
9486;DHT22;4781;48.776;9.200;2022-11-20T17:59:47;6.70;99.90
9486;DHT22;4781;48.776;9.200;2022-11-20T18:02:16;6.80;99.90
9486;DHT22;4781;48.776;9.200;2022-11-20T18:04:44;6.80;99.90
9486;DHT22;4781;48.776;9.200;2022-11-20T18:07:13;6.80;99.90
9486;DHT22;4781;48.776;9.200;2022-11-20T18:09:41;6.80;99.90